Time;durP1;ratioP1;P1;durP2;ratioP2;P2;SDS_P1;SDS_P2;PMS_P1;PMS_P2;Temp;Humidity;BMP_temperature;BMP_pressure;BME280_temperature;BME280_humidity;BME280_pressure;Samples;Min_cycle;Max_cycle;Signal;HPM_P1;HPM_P2
2022/06/25 00:01:19;;;;;;;14.20;13.00;;;17.90;99.90;;;;;;4974117;28;20442;-87
2022/06/25 00:03:44;;;;;;;14.60;13.23;;;18.00;99.90;;;;;;4995935;28;20069;-88
2022/06/25 00:06:10;;;;;;;14.40;13.02;;;17.90;99.90;;;;;;4993125;28;20047;-87
2022/06/25 00:08:36;;;;;;;14.15;12.85;;;17.90;99.90;;;;;;4993704;28;20057;-86
2022/06/25 00:11:03;;;;;;;15.85;14.35;;;17.90;99.90;;;;;;4993307;28;20133;-87
2022/06/25 00:13:28;;;;;;;15.93;14.52;;;17.80;99.90;;;;;;4990533;28;20093;-87
2022/06/25 00:15:54;;;;;;;15.00;13.57;;;17.80;99.90;;;;;;4973832;28;20082;-87
2022/06/25 00:18:20;;;;;;;14.10;12.95;;;17.80;99.90;;;;;;4990204;28;20046;-87
2022/06/25 00:20:46;;;;;;;14.95;13.57;;;17.80;99.90;;;;;;4974253;28;20111;-86
2022/06/25 00:23:12;;;;;;;15.30;13.35;;;17.80;99.90;;;;;;4989260;28;20078;-89
2022/06/25 00:25:37;;;;;;;13.25;12.15;;;17.70;99.90;;;;;;4973673;28;20453;-86
2022/06/25 00:28:03;;;;;;;14.10;12.90;;;17.70;99.90;;;;;;4989811;28;20609;-87
2022/06/25 00:30:29;;;;;;;14.93;13.52;;;17.70;99.90;;;;;;4989661;28;20072;-86
2022/06/25 00:32:55;;;;;;;14.40;13.05;;;17.70;99.90;;;;;;4974592;28;20387;-87
2022/06/25 00:35:21;;;;;;;13.88;12.57;;;17.70;99.90;;;;;;4994025;28;20086;-87
2022/06/25 00:37:47;;;;;;;15.48;14.02;;;17.70;99.90;;;;;;4993310;28;20057;-87
2022/06/25 00:40:13;;;;;;;14.32;12.80;;;17.70;99.90;;;;;;4992993;28;20049;-86
2022/06/25 00:42:43;;;;;;;13.98;12.77;;;17.70;99.90;;;;;;4993272;28;20050;-87
2022/06/25 00:45:09;;;;;;;14.15;12.80;;;17.70;99.90;;;;;;4978885;28;20050;-87
2022/06/25 00:47:34;;;;;;;14.48;13.07;;;17.70;99.90;;;;;;4995281;28;20052;-87
2022/06/25 00:50:00;;;;;;;14.80;13.10;;;17.70;99.90;;;;;;4993405;28;20169;-86
2022/06/25 00:52:26;;;;;;;13.88;12.68;;;17.70;99.90;;;;;;4992588;28;20069;-86
2022/06/25 00:54:58;;;;;;;14.30;13.00;;;17.70;99.90;;;;;;4992469;28;20053;-87
2022/06/25 00:57:25;;;;;;;14.35;13.05;;;17.70;99.90;;;;;;4992722;28;20046;-87
2022/06/25 00:59:51;;;;;;;14.68;13.38;;;17.70;99.90;;;;;;4992537;28;20046;-86
2022/06/25 01:02:17;;;;;;;15.38;13.98;;;17.70;99.90;;;;;;4992329;28;20061;-86
2022/06/25 01:04:43;;;;;;;15.35;13.95;;;17.60;99.90;;;;;;4993882;28;20046;-86
2022/06/25 01:07:09;;;;;;;15.43;13.95;;;17.60;99.90;;;;;;4976421;28;20042;-86
2022/06/25 01:09:35;;;;;;;15.45;13.90;;;17.60;99.90;;;;;;4976156;28;20057;-87
2022/06/25 01:12:01;;;;;;;14.82;13.40;;;17.50;99.90;;;;;;4992682;28;20050;-86
2022/06/25 01:14:27;;;;;;;16.30;14.82;;;17.50;99.90;;;;;;4992400;28;20508;-86
2022/06/25 01:16:52;;;;;;;16.63;15.18;;;17.50;99.90;;;;;;4992048;28;20052;-86
2022/06/25 01:19:18;;;;;;;17.52;15.85;;;17.50;99.90;;;;;;4992291;28;20047;-87
2022/06/25 01:21:44;;;;;;;16.38;14.95;;;17.40;99.90;;;;;;4993620;28;20046;-86
2022/06/25 01:24:11;;;;;;;17.50;15.90;;;17.40;99.90;;;;;;4992364;28;20058;-87
2022/06/25 01:26:39;;;;;;;19.42;17.63;;;17.40;99.90;;;;;;4991984;28;20042;-87
2022/06/25 01:29:05;;;;;;;19.02;17.23;;;17.30;99.90;;;;;;4976092;28;20061;-86
2022/06/25 01:31:31;;;;;;;18.30;16.55;;;17.40;99.90;;;;;;4992119;28;20050;-87
2022/06/25 01:33:57;;;;;;;18.13;16.52;;;17.40;99.90;;;;;;4976441;28;20056;-87
2022/06/25 01:36:22;;;;;;;18.40;16.60;;;17.40;99.90;;;;;;4991718;28;20402;-87
2022/06/25 01:38:48;;;;;;;19.60;17.60;;;17.30;99.90;;;;;;4992070;28;20141;-86
2022/06/25 01:41:13;;;;;;;17.42;15.88;;;17.30;99.90;;;;;;4991803;28;20042;-87
2022/06/25 01:43:39;;;;;;;18.45;16.30;;;17.30;99.90;;;;;;4991768;28;20094;-86
2022/06/25 01:46:08;;;;;;;17.38;15.77;;;17.30;99.90;;;;;;4991133;28;20046;-87
2022/06/25 01:48:34;;;;;;;16.90;15.30;;;17.30;99.90;;;;;;4991833;28;20082;-87
2022/06/25 01:50:59;;;;;;;16.98;15.45;;;17.20;99.90;;;;;;4993215;28;20092;-87
2022/06/25 01:53:25;;;;;;;17.73;16.02;;;17.30;99.90;;;;;;4992731;28;20050;-87
2022/06/25 01:55:51;;;;;;;18.23;16.52;;;17.20;99.90;;;;;;4992988;28;20046;-88
2022/06/25 01:58:17;;;;;;;17.10;15.43;;;17.20;99.90;;;;;;4991772;28;20046;-86
2022/06/25 02:00:42;;;;;;;17.92;16.27;;;17.20;99.90;;;;;;4991497;28;20072;-87
2022/06/25 02:03:08;;;;;;;17.00;15.40;;;17.20;99.90;;;;;;4995732;28;20189;-88
2022/06/25 02:08:18;;;;;;;;;;;17.10;99.90;;;;;;4994929;28;20058;-86
2022/06/25 02:10:44;;;;;;;19.17;17.35;;;17.10;99.90;;;;;;4993194;28;19922;-88
2022/06/25 02:13:10;;;;;;;18.40;16.70;;;17.00;99.90;;;;;;4994052;28;20140;-86
2022/06/25 02:15:36;;;;;;;17.73;16.02;;;17.00;99.90;;;;;;4990680;28;20189;-86
2022/06/25 02:18:01;;;;;;;17.98;16.10;;;17.00;99.90;;;;;;4991372;28;20054;-86
2022/06/25 02:20:27;;;;;;;18.35;16.55;;;17.00;99.90;;;;;;4991090;28;20065;-86
2022/06/25 02:22:53;;;;;;;19.25;17.45;;;16.90;99.90;;;;;;4991550;28;20057;-87
2022/06/25 02:25:18;;;;;;;19.08;17.13;;;16.90;99.90;;;;;;4992495;28;20050;-87
2022/06/25 02:27:44;;;;;;;19.15;17.25;;;16.90;99.90;;;;;;4990578;28;20054;-87
2022/06/25 02:30:10;;;;;;;20.23;18.23;;;16.80;99.90;;;;;;4992224;28;20140;-86
2022/06/25 02:32:36;;;;;;;21.13;19.17;;;16.90;99.90;;;;;;4990858;28;20050;-86
2022/06/25 02:35:02;;;;;;;19.42;17.35;;;16.80;99.90;;;;;;4991201;28;20517;-86
2022/06/25 02:37:28;;;;;;;20.48;18.33;;;16.80;99.90;;;;;;4990767;28;20042;-86
2022/06/25 02:39:53;;;;;;;21.13;19.02;;;16.80;99.90;;;;;;4991888;28;20092;-87
2022/06/25 02:42:19;;;;;;;20.70;18.70;;;16.70;99.90;;;;;;4990936;28;20093;-86
2022/06/25 02:44:44;;;;;;;23.63;21.33;;;16.70;99.90;;;;;;4990309;28;20054;-86
2022/06/25 02:47:10;;;;;;;24.08;21.67;;;16.70;99.90;;;;;;4993676;28;20136;-87
2022/06/25 02:49:36;;;;;;;24.13;21.63;;;16.70;99.90;;;;;;4994107;28;20046;-86
2022/06/25 02:52:01;;;;;;;26.30;23.70;;;16.70;99.90;;;;;;4994038;28;20050;-85
2022/06/25 02:54:27;;;;;;;24.23;21.58;;;16.70;99.90;;;;;;4993425;28;20105;-86
2022/06/25 02:59:54;;;;;;;27.15;24.55;;;16.70;99.90;;;;;;4959133;28;20141;-86
2022/06/25 03:02:20;;;;;;;26.38;23.70;;;16.70;99.90;;;;;;4990876;28;20149;-86
2022/06/25 03:04:45;;;;;;;26.27;23.65;;;16.70;99.90;;;;;;4991782;28;20054;-87
2022/06/25 03:07:11;;;;;;;26.55;23.95;;;16.70;99.90;;;;;;4990749;28;20046;-86
2022/06/25 03:09:37;;;;;;;24.92;22.45;;;16.70;99.90;;;;;;4990836;28;20054;-86
2022/06/25 03:12:03;;;;;;;25.08;22.67;;;16.60;99.90;;;;;;4990458;28;20133;-87
2022/06/25 03:14:29;;;;;;;25.20;22.60;;;16.70;99.90;;;;;;4990570;28;20050;-86
2022/06/25 03:16:54;;;;;;;24.50;22.20;;;16.70;99.90;;;;;;4989866;28;20039;-87
2022/06/25 03:19:20;;;;;;;24.70;22.23;;;16.60;99.90;;;;;;4990453;28;20115;-86
2022/06/25 03:21:46;;;;;;;25.10;22.67;;;16.60;99.90;;;;;;4990453;28;20073;-86
2022/06/25 03:24:11;;;;;;;25.27;22.85;;;16.60;99.90;;;;;;4990619;28;20050;-87
2022/06/25 03:26:37;;;;;;;26.23;23.73;;;16.60;99.90;;;;;;4991583;28;20568;-86
2022/06/25 03:29:03;;;;;;;26.05;23.55;;;16.60;99.90;;;;;;4990357;28;20492;-86
2022/06/25 03:31:29;;;;;;;25.77;23.00;;;16.60;99.90;;;;;;4991736;28;20410;-87
2022/06/25 03:33:54;;;;;;;26.17;23.73;;;16.60;99.90;;;;;;4973654;28;20054;-87
2022/06/25 03:36:20;;;;;;;26.63;23.92;;;16.60;99.90;;;;;;4990468;28;20049;-86
2022/06/25 03:38:46;;;;;;;24.63;22.33;;;16.70;99.90;;;;;;4989819;28;20054;-87
2022/06/25 03:43:56;;;;;;;23.67;20.92;;;16.70;99.90;;;;;;4976136;28;20058;-86
2022/06/25 03:46:21;;;;;;;24.58;22.23;;;17.10;99.90;;;;;;4991156;28;20466;-87
2022/06/25 03:48:47;;;;;;;22.73;20.52;;;17.00;99.90;;;;;;4990969;28;20459;-87
2022/06/25 03:51:13;;;;;;;22.38;20.05;;;17.10;99.90;;;;;;4989878;28;20046;-86
2022/06/25 03:53:39;;;;;;;21.70;19.73;;;17.20;99.90;;;;;;4990605;28;20050;-86
2022/06/25 03:56:04;;;;;;;19.75;18.05;;;17.30;99.90;;;;;;4990515;28;20050;-87
2022/06/25 03:58:30;;;;;;;20.00;18.00;;;17.40;99.90;;;;;;4989385;28;20042;-87
2022/06/25 04:00:56;;;;;;;20.77;18.85;;;17.40;99.90;;;;;;4973245;28;20065;-87
2022/06/25 04:03:21;;;;;;;19.92;18.02;;;17.50;99.90;;;;;;4990763;28;20055;-87
2022/06/25 04:05:47;;;;;;;19.48;17.63;;;17.50;99.90;;;;;;4989358;28;20078;-88
2022/06/25 04:08:13;;;;;;;18.00;16.35;;;17.50;99.90;;;;;;4942622;28;20038;-88
2022/06/25 04:10:38;;;;;;;19.92;18.13;;;17.50;99.90;;;;;;4992908;28;20058;-88
2022/06/25 04:13:04;;;;;;;19.38;17.58;;;17.50;99.90;;;;;;4976836;28;20502;-88
2022/06/25 04:15:30;;;;;;;17.77;16.17;;;17.50;99.90;;;;;;4984517;28;20054;-87
2022/06/25 04:17:55;;;;;;;18.27;16.48;;;17.50;99.90;;;;;;5001267;28;20147;-86
2022/06/25 04:20:21;;;;;;;19.05;17.40;;;17.50;99.90;;;;;;4988074;28;20059;-87
2022/06/25 04:22:46;;;;;;;18.20;16.52;;;17.50;99.90;;;;;;4986014;28;20050;-88
2022/06/25 04:25:12;;;;;;;18.05;16.10;;;17.50;99.90;;;;;;4986303;28;20046;-87
2022/06/25 04:30:22;;;;;;;;;;;17.50;99.90;;;;;;4980773;28;20144;-89
2022/06/25 04:32:48;;;;;;;17.80;16.20;;;17.50;99.90;;;;;;4995719;28;19973;-90
2022/06/25 04:35:13;;;;;;;16.63;15.15;;;17.50;99.90;;;;;;4998040;28;20050;-88
2022/06/25 04:37:39;;;;;;;16.42;14.93;;;17.60;99.90;;;;;;4994912;28;20057;-88
2022/06/25 04:40:05;;;;;;;15.57;14.18;;;17.70;99.90;;;;;;4995011;28;20475;-89
2022/06/25 04:42:31;;;;;;;15.73;14.30;;;18.10;99.90;;;;;;4977808;28;20046;-88
2022/06/25 04:44:57;;;;;;;12.63;11.52;;;18.80;99.90;;;;;;4978181;28;20072;-88
2022/06/25 04:47:22;;;;;;;11.88;10.85;;;19.50;99.90;;;;;;4993781;28;20054;-90
2022/06/25 04:49:49;;;;;;;11.18;10.18;;;20.30;99.90;;;;;;4994217;28;20081;-90
2022/06/25 04:52:15;;;;;;;10.48;9.32;;;20.70;99.90;;;;;;4979541;28;20062;-90
2022/06/25 04:54:40;;;;;;;9.45;8.57;;;21.50;99.90;;;;;;4993779;28;20042;-90
2022/06/25 04:57:06;;;;;;;9.30;8.40;;;21.60;99.90;;;;;;4994499;28;20046;-89
2022/06/25 04:59:32;;;;;;;8.95;8.00;;;22.10;99.90;;;;;;4993736;28;20042;-89
2022/06/25 05:01:58;;;;;;;7.68;6.90;;;22.40;99.90;;;;;;4993292;28;20053;-89
2022/06/25 05:04:24;;;;;;;9.00;8.20;;;22.90;99.90;;;;;;4998907;28;20112;-90
2022/06/25 05:06:49;;;;;;;8.40;7.60;;;22.80;99.90;;;;;;5005750;28;20050;-89
2022/06/25 05:09:15;;;;;;;7.28;6.55;;;22.90;99.90;;;;;;5006666;28;20050;-88
2022/06/25 05:11:41;;;;;;;7.80;7.20;;;23.10;99.90;;;;;;5007859;28;20505;-88
2022/06/25 05:14:06;;;;;;;7.68;6.88;;;22.50;99.90;;;;;;4981043;28;20509;-89
2022/06/25 05:16:32;;;;;;;7.43;6.82;;;22.80;99.90;;;;;;4985452;28;20050;-90
2022/06/25 05:18:57;;;;;;;7.10;6.57;;;23.10;99.90;;;;;;5005931;28;20057;-90
2022/06/25 05:21:25;;;;;;;7.25;6.55;;;23.10;99.90;;;;;;4978447;28;20048;-90
2022/06/25 05:23:51;;;;;;;6.90;6.32;;;23.50;99.90;;;;;;4993534;28;20051;-89
2022/06/25 05:26:17;;;;;;;6.90;6.20;;;23.70;99.90;;;;;;4994742;28;20049;-91
2022/06/25 05:28:42;;;;;;;6.45;5.95;;;23.80;99.90;;;;;;4995657;28;20089;-90
2022/06/25 05:31:08;;;;;;;6.43;5.80;;;24.00;99.90;;;;;;5000144;28;20117;-89
2022/06/25 05:33:34;;;;;;;7.82;6.05;;;24.10;99.90;;;;;;5001753;28;20054;-90
2022/06/25 05:35:59;;;;;;;5.82;5.32;;;24.50;99.90;;;;;;4981801;28;20046;-89
2022/06/25 05:38:25;;;;;;;6.47;5.63;;;24.80;99.90;;;;;;4996837;28;20050;-90
2022/06/25 05:40:51;;;;;;;6.45;5.75;;;24.50;99.90;;;;;;4994521;28;20050;-90
2022/06/25 05:43:16;;;;;;;6.30;5.63;;;24.60;99.90;;;;;;4977015;28;20047;-90
2022/06/25 05:45:42;;;;;;;6.80;5.05;;;24.80;99.90;;;;;;4992508;28;20046;-90
2022/06/25 05:48:08;;;;;;;6.22;5.57;;;24.60;99.90;;;;;;4992207;28;20144;-89
2022/06/25 05:50:33;;;;;;;5.93;5.43;;;24.90;99.90;;;;;;4993666;28;20092;-91
2022/06/25 05:52:59;;;;;;;6.55;5.95;;;24.70;99.90;;;;;;4991769;28;20501;-90
2022/06/25 05:55:25;;;;;;;7.35;5.20;;;25.70;99.90;;;;;;4975818;28;20050;-91
2022/06/25 05:57:51;;;;;;;6.43;4.95;;;25.80;99.90;;;;;;4993180;28;20046;-90
2022/06/25 06:00:17;;;;;;;5.25;4.85;;;25.40;99.90;;;;;;4993680;28;20054;-91
2022/06/25 06:02:42;;;;;;;6.28;5.30;;;25.80;99.90;;;;;;4992232;28;20406;-89
2022/06/25 06:05:08;;;;;;;6.80;5.30;;;25.80;99.90;;;;;;4992014;28;20053;-90
2022/06/25 06:07:34;;;;;;;6.18;5.30;;;26.10;99.90;;;;;;4976172;28;20047;-88
2022/06/25 06:10:00;;;;;;;5.32;4.80;;;26.20;99.90;;;;;;4975826;28;20489;-90
2022/06/25 06:12:26;;;;;;;7.40;4.88;;;26.40;99.90;;;;;;4992182;28;20109;-89
2022/06/25 06:14:51;;;;;;;5.53;4.93;;;26.50;99.90;;;;;;4959653;28;20053;-92
2022/06/25 06:17:23;;;;;;;5.45;4.95;;;26.50;99.90;;;;;;4993237;28;20054;-89
2022/06/25 06:19:49;;;;;;;5.50;4.75;;;26.60;99.90;;;;;;4991617;28;20042;-90
2022/06/25 06:22:14;;;;;;;5.93;4.35;;;26.90;99.90;;;;;;4992669;28;20046;-89
2022/06/25 06:24:40;;;;;;;5.50;5.00;;;27.00;99.90;;;;;;4991922;28;20042;-89
2022/06/25 06:27:06;;;;;;;4.95;4.47;;;27.10;99.90;;;;;;4986477;28;20056;-89
2022/06/25 06:29:31;;;;;;;6.35;4.57;;;27.40;99.90;;;;;;5006530;28;20581;-90
2022/06/25 06:31:57;;;;;;;8.35;4.78;;;27.10;99.90;;;;;;5001636;28;20050;-89
2022/06/25 06:34:22;;;;;;;4.97;4.47;;;27.10;99.90;;;;;;5005204;28;20042;-90
2022/06/25 06:36:48;;;;;;;7.60;4.00;;;26.90;99.90;;;;;;4997379;28;20043;-88
2022/06/25 06:39:14;;;;;;;5.40;4.30;;;26.70;99.90;;;;;;4991700;28;20071;-89
2022/06/25 06:41:40;;;;;;;6.72;4.63;;;26.80;99.90;;;;;;4975762;28;20046;-90
2022/06/25 06:44:06;;;;;;;5.78;4.35;;;26.90;99.90;;;;;;4992521;28;20050;-89
2022/06/25 06:46:31;;;;;;;4.82;4.43;;;27.20;99.90;;;;;;4991588;28;20141;-89
2022/06/25 06:48:57;;;;;;;6.53;4.68;;;27.20;99.90;;;;;;4975111;28;20053;-89
2022/06/25 06:51:23;;;;;;;4.85;4.35;;;26.80;99.90;;;;;;4975229;28;20125;-89
2022/06/25 06:53:48;;;;;;;4.80;3.92;;;27.00;99.90;;;;;;4975345;28;20132;-90
2022/06/25 06:56:14;;;;;;;6.03;4.20;;;27.40;99.90;;;;;;4991769;28;20050;-89
2022/06/25 06:58:40;;;;;;;4.75;4.00;;;27.60;99.90;;;;;;4991226;28;20053;-89
2022/06/25 07:01:05;;;;;;;6.00;3.95;;;27.80;99.90;;;;;;4991823;28;20529;-88
2022/06/25 07:03:31;;;;;;;5.60;3.75;;;27.40;99.90;;;;;;4990768;28;20050;-90
2022/06/25 07:05:57;;;;;;;4.57;3.35;;;27.00;99.90;;;;;;4992246;28;20121;-89
2022/06/25 07:08:22;;;;;;;3.70;3.13;;;26.90;99.90;;;;;;4959245;28;20054;-89
2022/06/25 07:10:48;;;;;;;5.30;3.03;;;27.30;99.90;;;;;;4992094;28;20050;-90
2022/06/25 07:13:14;;;;;;;5.13;3.50;;;27.40;99.90;;;;;;4990604;28;20042;-89
2022/06/25 07:15:40;;;;;;;5.38;3.00;;;27.20;99.90;;;;;;4995099;28;20398;-90
2022/06/25 07:18:06;;;;;;;5.45;3.63;;;27.40;99.90;;;;;;4989787;28;20081;-89
2022/06/25 07:20:32;;;;;;;3.45;3.15;;;26.90;99.90;;;;;;5000982;28;20046;-90
2022/06/25 07:22:57;;;;;;;3.75;3.08;;;27.70;99.90;;;;;;4990870;28;20115;-89
2022/06/25 07:25:23;;;;;;;3.22;2.50;;;27.40;99.90;;;;;;4974710;28;20109;-90
2022/06/25 07:27:49;;;;;;;6.18;2.80;;;27.80;99.90;;;;;;4991871;28;20050;-89
2022/06/25 07:30:14;;;;;;;3.75;2.85;;;27.80;99.90;;;;;;4991326;28;20109;-89
2022/06/25 07:32:40;;;;;;;6.22;2.45;;;28.00;99.90;;;;;;4974523;28;20097;-91
2022/06/25 07:35:06;;;;;;;4.63;2.65;;;28.40;99.90;;;;;;4991171;28;20050;-90
2022/06/25 07:37:32;;;;;;;5.22;2.75;;;28.90;99.90;;;;;;4990382;28;20494;-88
2022/06/25 07:39:58;;;;;;;3.97;2.45;;;28.20;99.90;;;;;;4974630;28;20081;-89
2022/06/25 07:42:23;;;;;;;4.05;2.50;;;28.70;99.90;;;;;;4991628;28;20473;-91
2022/06/25 07:44:49;;;;;;;3.35;2.47;;;29.10;99.90;;;;;;4994851;28;20077;-88
2022/06/25 07:47:15;;;;;;;3.80;2.10;;;28.80;99.90;;;;;;4995226;28;20058;-88
2022/06/25 07:52:26;;;;;;;3.45;2.00;;;28.60;99.90;;;;;;4967114;28;20054;-89
2022/06/25 07:54:51;;;;;;;4.55;2.20;;;29.10;99.90;;;;;;4995504;28;20506;-88
2022/06/25 07:57:17;;;;;;;4.18;2.15;;;29.90;99.90;;;;;;4961636;28;20046;-90
2022/06/25 07:59:43;;;;;;;4.80;2.20;;;29.40;99.90;;;;;;4994458;28;20061;-89
2022/06/25 08:02:08;;;;;;;4.22;2.25;;;29.80;99.90;;;;;;4995057;28;20058;-90
2022/06/25 08:04:34;;;;;;;4.93;2.55;;;29.70;99.90;;;;;;4995262;28;20103;-90
2022/06/25 08:07:00;;;;;;;3.90;1.80;;;28.80;99.90;;;;;;4978071;28;20058;-89
2022/06/25 08:09:26;;;;;;;2.50;2.00;;;27.90;99.90;;;;;;4993982;28;20065;-89
2022/06/25 08:11:51;;;;;;;4.00;2.25;;;27.90;99.90;;;;;;4998371;28;20038;-87
2022/06/25 08:14:17;;;;;;;4.05;2.20;;;28.00;99.90;;;;;;4979575;28;20560;-90
2022/06/25 08:16:42;;;;;;;4.97;2.13;;;28.70;99.90;;;;;;5009741;28;20038;-88
2022/06/25 08:19:08;;;;;;;3.30;1.85;;;28.80;99.90;;;;;;5005795;28;20130;-90
2022/06/25 08:21:34;;;;;;;2.45;1.63;;;28.40;99.90;;;;;;4994281;28;20046;-88
2022/06/25 08:23:59;;;;;;;4.88;2.10;;;28.20;99.90;;;;;;4990570;28;20055;-89
2022/06/25 08:26:25;;;;;;;4.45;1.98;;;29.30;99.90;;;;;;5002838;28;20037;-90
2022/06/25 08:28:51;;;;;;;5.72;1.70;;;29.30;99.90;;;;;;4976682;28;20153;-89
2022/06/25 08:31:16;;;;;;;7.30;2.03;;;29.40;99.90;;;;;;4994235;28;20042;-89
2022/06/25 08:33:42;;;;;;;3.65;1.95;;;29.50;99.90;;;;;;4992380;28;20042;-89
2022/06/25 08:36:08;;;;;;;5.40;1.92;;;28.70;99.90;;;;;;5008787;28;20042;-88
2022/06/25 08:38:33;;;;;;;2.05;1.73;;;28.70;99.90;;;;;;4993675;28;20038;-87
2022/06/25 08:41:00;;;;;;;4.18;2.00;;;28.70;99.90;;;;;;5007182;28;20428;-87
2022/06/25 08:43:26;;;;;;;5.20;2.08;;;28.60;99.90;;;;;;4975744;28;20077;-88
2022/06/25 08:45:52;;;;;;;2.70;1.90;;;27.90;99.90;;;;;;4977379;28;20086;-89
2022/06/25 08:48:24;;;;;;;3.35;2.20;;;28.70;99.90;;;;;;4978702;28;20473;-88
2022/06/25 08:50:50;;;;;;;3.17;2.10;;;29.10;99.90;;;;;;4976337;28;20074;-88
2022/06/25 08:53:16;;;;;;;4.38;2.00;;;29.10;99.90;;;;;;4975719;28;20447;-89
2022/06/25 08:55:44;;;;;;;7.18;2.20;;;28.10;99.90;;;;;;4992541;28;20449;-89
2022/06/25 08:58:11;;;;;;;5.43;1.73;;;28.40;99.90;;;;;;4976500;28;20590;-88
2022/06/25 09:00:39;;;;;;;7.90;2.22;;;28.10;99.90;;;;;;4991892;28;20053;-89
2022/06/25 09:03:05;;;;;;;2.75;1.85;;;27.70;99.90;;;;;;4992235;28;20410;-89
2022/06/25 09:05:35;;;;;;;2.60;1.95;;;28.20;99.90;;;;;;4960101;28;20058;-87
2022/06/25 09:08:07;;;;;;;3.80;1.98;;;28.70;99.90;;;;;;4945097;28;20098;-87
2022/06/25 09:10:33;;;;;;;4.82;1.95;;;28.30;99.90;;;;;;4977135;28;20514;-87
2022/06/25 09:13:05;;;;;;;4.03;1.65;;;27.10;99.90;;;;;;4977495;28;20057;-85
2022/06/25 09:15:33;;;;;;;5.78;2.08;;;27.90;99.90;;;;;;4993574;28;20093;-86
2022/06/25 09:18:05;;;;;;;3.75;1.80;;;28.50;99.90;;;;;;4960904;28;20116;-86
2022/06/25 09:20:31;;;;;;;4.82;2.03;;;28.60;99.90;;;;;;4976899;28;20050;-88
2022/06/25 09:23:05;;;;;;;3.35;1.90;;;27.90;99.90;;;;;;4992487;28;20108;-85
2022/06/25 09:25:32;;;;;;;3.50;2.00;;;28.70;99.90;;;;;;4992054;28;20046;-86
2022/06/25 09:27:58;;;;;;;3.50;2.10;;;27.50;99.90;;;;;;4982922;28;20065;-89
2022/06/25 09:30:29;;;;;;;2.40;1.65;;;27.30;99.90;;;;;;5007254;28;20062;-86
2022/06/25 09:32:55;;;;;;;5.88;2.00;;;27.00;99.90;;;;;;4971828;28;20497;-87
2022/06/25 09:35:41;;;;;;;2.20;1.50;;;27.30;99.90;;;;;;4992614;28;20054;-83
2022/06/25 09:38:12;;;;;;;3.10;1.50;;;26.60;99.90;;;;;;4991283;28;20154;-86
2022/06/25 09:40:38;;;;;;;1.95;1.60;;;27.20;99.90;;;;;;4990658;28;20510;-86
2022/06/25 09:43:15;;;;;;;4.15;1.50;;;27.50;99.90;;;;;;4991189;28;20162;-85
2022/06/25 09:45:45;;;;;;;2.80;1.30;;;27.00;99.90;;;;;;5006619;28;20125;-86
2022/06/25 09:48:21;;;;;;;5.07;1.60;;;27.40;99.90;;;;;;4991055;28;20043;-87
2022/06/25 09:51:06;;;;;;;3.08;1.85;;;27.80;99.90;;;;;;4990349;28;20050;-86
2022/06/25 09:53:32;;;;;;;2.08;1.50;;;28.20;99.90;;;;;;5007185;28;20191;-89
2022/06/25 09:56:00;;;;;;;3.85;1.40;;;28.10;99.90;;;;;;4975483;28;20038;-87
2022/06/25 09:58:26;;;;;;;2.50;1.52;;;27.70;99.90;;;;;;4992005;28;20509;-88
2022/06/25 10:00:53;;;;;;;2.15;1.42;;;27.70;99.90;;;;;;4974852;28;20042;-89
2022/06/25 10:03:19;;;;;;;7.18;1.83;;;27.80;99.90;;;;;;4974945;28;20221;-88
2022/06/25 10:05:45;;;;;;;4.03;1.70;;;28.30;99.90;;;;;;4974014;28;20475;-88
2022/06/25 10:08:11;;;;;;;2.58;1.70;;;28.00;99.90;;;;;;4974852;28;20058;-87
2022/06/25 10:10:39;;;;;;;2.78;1.58;;;27.60;99.90;;;;;;4974454;28;20058;-90
2022/06/25 10:13:05;;;;;;;5.85;1.80;;;27.80;99.90;;;;;;4976590;28;20043;-88
2022/06/25 10:15:31;;;;;;;2.83;1.50;;;28.10;99.90;;;;;;4993393;28;21044;-89
2022/06/25 10:17:58;;;;;;;1.65;1.38;;;27.70;99.90;;;;;;4993236;28;20050;-90
2022/06/25 10:20:24;;;;;;;2.28;1.95;;;28.00;99.90;;;;;;4961131;28;20138;-89
2022/06/25 10:22:50;;;;;;;1.83;1.58;;;27.60;99.90;;;;;;4993729;28;20557;-89
2022/06/25 10:25:21;;;;;;;3.22;1.70;;;27.40;99.90;;;;;;4985576;28;20042;-89
2022/06/25 10:27:48;;;;;;;3.40;2.05;;;27.90;99.90;;;;;;4978809;28;20499;-89
2022/06/25 10:30:15;;;;;;;3.90;1.80;;;27.50;99.90;;;;;;4991423;28;20482;-88
2022/06/25 10:32:46;;;;;;;3.83;2.00;;;27.60;99.90;;;;;;4982179;28;20674;-84
2022/06/25 10:35:27;;;;;;;3.42;2.20;;;27.60;99.90;;;;;;4983081;28;20446;-85
2022/06/25 10:38:06;;;;;;;2.67;1.88;;;27.40;99.90;;;;;;4958644;28;20501;-82
2022/06/25 10:40:33;;;;;;;4.97;2.28;;;28.10;99.90;;;;;;4991111;28;20138;-84
2022/06/25 10:43:04;;;;;;;4.75;1.75;;;28.30;99.90;;;;;;4957709;28;20046;-86
2022/06/25 10:45:33;;;;;;;2.08;1.55;;;28.70;99.90;;;;;;4989622;28;20475;-85
2022/06/25 10:47:59;;;;;;;4.85;1.75;;;29.20;99.90;;;;;;4989937;28;20054;-85
2022/06/25 10:50:25;;;;;;;2.35;2.15;;;29.10;99.90;;;;;;4957507;28;20050;-86
2022/06/25 10:55:58;;;;;;;2.95;1.80;;;29.40;99.90;;;;;;4988475;28;20515;-86
2022/06/25 10:58:25;;;;;;;4.95;1.98;;;29.00;99.90;;;;;;4985357;28;20054;-86
2022/06/25 11:00:54;;;;;;;3.15;1.70;;;28.30;99.90;;;;;;4991617;28;20054;-86
2022/06/25 11:03:32;;;;;;;3.47;1.50;;;27.90;99.90;;;;;;4990273;28;20398;-86
2022/06/25 11:06:16;;;;;;;5.38;1.83;;;27.50;99.90;;;;;;4996070;28;20051;-85
2022/06/25 11:08:42;;;;;;;1.77;1.60;;;27.20;99.90;;;;;;4981197;28;20054;-86
2022/06/25 11:11:07;;;;;;;2.63;1.45;;;27.50;99.90;;;;;;4956677;28;20500;-86
2022/06/25 11:13:33;;;;;;;4.70;1.45;;;27.70;99.90;;;;;;4990613;28;20109;-85
2022/06/25 11:15:59;;;;;;;2.00;1.50;;;28.30;99.90;;;;;;4989840;28;20052;-86
2022/06/25 11:18:24;;;;;;;4.50;1.65;;;28.40;99.90;;;;;;4957513;28;20146;-87
2022/06/25 11:20:51;;;;;;;4.00;1.40;;;28.40;99.90;;;;;;4990584;28;20053;-87
2022/06/25 11:23:17;;;;;;;4.75;1.67;;;28.40;99.90;;;;;;4989970;28;20082;-85
2022/06/25 11:28:52;;;;;;;4.82;1.92;;;28.20;99.90;;;;;;4974196;28;20110;-86
2022/06/25 11:31:24;;;;;;;2.88;1.40;;;27.90;99.90;;;;;;4975779;28;20054;-85
2022/06/25 11:33:52;;;;;;;2.55;1.50;;;28.10;99.90;;;;;;4971084;28;20553;-86
2022/06/25 11:36:18;;;;;;;3.28;1.30;;;28.30;99.90;;;;;;4989445;28;20117;-85
2022/06/25 11:38:49;;;;;;;2.45;1.30;;;28.20;99.90;;;;;;4988689;28;20548;-85
2022/06/25 11:41:19;;;;;;;3.00;1.45;;;28.40;99.90;;;;;;4990482;28;20104;-86
2022/06/25 11:43:45;;;;;;;2.65;1.02;;;28.10;99.90;;;;;;4974015;28;20050;-85
2022/06/25 11:46:13;;;;;;;3.33;1.33;;;28.10;99.90;;;;;;4990691;28;20552;-86
2022/06/25 11:48:38;;;;;;;3.45;1.38;;;28.40;99.90;;;;;;4989540;28;20058;-86
2022/06/25 11:51:04;;;;;;;2.47;1.20;;;28.50;99.90;;;;;;4958122;28;20394;-85
2022/06/25 11:53:30;;;;;;;3.92;1.45;;;28.20;99.90;;;;;;4991298;28;20467;-85
2022/06/25 11:55:59;;;;;;;2.95;1.30;;;28.00;99.90;;;;;;4989575;28;20057;-86
2022/06/25 11:58:26;;;;;;;4.88;1.40;;;28.00;99.90;;;;;;4989142;28;20034;-87
2022/06/25 12:01:00;;;;;;;3.58;1.45;;;27.80;99.90;;;;;;4972907;28;20399;-85
2022/06/25 12:03:29;;;;;;;3.45;1.20;;;27.00;99.90;;;;;;4968514;28;20042;-86
2022/06/25 12:05:55;;;;;;;5.43;1.60;;;27.00;99.90;;;;;;4990012;28;20309;-84
2022/06/25 12:08:24;;;;;;;3.20;1.40;;;27.10;99.90;;;;;;4972697;28;20053;-85
2022/06/25 12:10:51;;;;;;;3.03;1.35;;;27.20;99.90;;;;;;4989858;28;20053;-85
2022/06/25 12:13:17;;;;;;;2.90;1.73;;;27.00;99.90;;;;;;4972766;28;20042;-86
2022/06/25 12:15:43;;;;;;;3.50;1.33;;;26.90;99.90;;;;;;4956667;28;20101;-86
2022/06/25 12:18:08;;;;;;;4.30;1.48;;;26.80;99.90;;;;;;4956558;28;20054;-87
2022/06/25 12:20:34;;;;;;;3.90;1.38;;;26.80;99.90;;;;;;4972547;28;20049;-86
2022/06/25 12:23:00;;;;;;;3.28;1.65;;;26.90;99.90;;;;;;4972766;28;20118;-86
2022/06/25 12:25:28;;;;;;;2.83;1.50;;;26.80;99.90;;;;;;4989737;28;20129;-86
2022/06/25 12:27:53;;;;;;;4.18;1.30;;;26.80;99.90;;;;;;4988271;28;20066;-85
2022/06/25 12:30:29;;;;;;;3.60;1.30;;;26.80;99.90;;;;;;5008002;28;20552;-86
2022/06/25 12:32:57;;;;;;;2.67;1.23;;;26.50;99.90;;;;;;4992016;28;20104;-86
2022/06/25 12:35:27;;;;;;;2.10;1.60;;;26.40;99.90;;;;;;4960531;28;20105;-86
2022/06/25 12:38:14;;;;;;;4.57;1.77;;;26.00;99.90;;;;;;4976288;28;20081;-84
2022/06/25 12:40:41;;;;;;;3.60;1.60;;;26.00;99.90;;;;;;5005617;28;20065;-87
2022/06/25 12:43:07;;;;;;;3.70;2.25;;;25.80;99.90;;;;;;4976959;28;20049;-86
2022/06/25 12:45:33;;;;;;;2.75;1.50;;;25.50;99.90;;;;;;4993446;28;20046;-87
2022/06/25 12:48:00;;;;;;;2.08;1.45;;;25.30;99.90;;;;;;4976735;28;20046;-88
2022/06/25 12:50:27;;;;;;;4.05;1.80;;;25.00;99.90;;;;;;4993778;28;20046;-88
2022/06/25 12:52:53;;;;;;;3.08;1.52;;;25.00;99.90;;;;;;4976690;28;20054;-88
2022/06/25 12:55:20;;;;;;;3.70;1.83;;;24.70;99.90;;;;;;4992900;28;20482;-88
2022/06/25 12:57:46;;;;;;;3.30;1.80;;;24.50;99.90;;;;;;4992663;28;20046;-87